sensor_id;sensor_type;location;lat;lon;timestamp;P1;durP1;ratioP1;P2;durP2;ratioP2
61477;SDS011;47345;52.334;10.392;2023-08-30T00:02:16;3.80;;;2.80;;
61477;SDS011;47345;52.334;10.392;2023-08-30T00:04:47;3.20;;;2.60;;
61477;SDS011;47345;52.334;10.392;2023-08-30T00:07:18;4.10;;;2.80;;
61477;SDS011;47345;52.334;10.392;2023-08-30T00:09:49;2.50;;;2.30;;
61477;SDS011;47345;52.334;10.392;2023-08-30T00:12:19;3.00;;;2.60;;
61477;SDS011;47345;52.334;10.392;2023-08-30T00:14:50;4.80;;;3.00;;
61477;SDS011;47345;52.334;10.392;2023-08-30T00:17:21;3.30;;;2.90;;
61477;SDS011;47345;52.334;10.392;2023-08-30T00:19:52;2.90;;;2.50;;
61477;SDS011;47345;52.334;10.392;2023-08-30T00:22:23;4.90;;;3.00;;
61477;SDS011;47345;52.334;10.392;2023-08-30T00:24:55;3.50;;;2.50;;
61477;SDS011;47345;52.334;10.392;2023-08-30T00:27:26;4.50;;;2.80;;
61477;SDS011;47345;52.334;10.392;2023-08-30T00:29:56;4.50;;;3.00;;
61477;SDS011;47345;52.334;10.392;2023-08-30T00:32:28;4.50;;;2.90;;
61477;SDS011;47345;52.334;10.392;2023-08-30T00:34:59;3.70;;;3.20;;
61477;SDS011;47345;52.334;10.392;2023-08-30T00:37:30;4.90;;;3.20;;
61477;SDS011;47345;52.334;10.392;2023-08-30T00:40:01;3.60;;;3.00;;
61477;SDS011;47345;52.334;10.392;2023-08-30T00:42:33;4.00;;;3.10;;
61477;SDS011;47345;52.334;10.392;2023-08-30T00:45:05;4.80;;;3.40;;
61477;SDS011;47345;52.334;10.392;2023-08-30T00:47:36;4.30;;;3.00;;
61477;SDS011;47345;52.334;10.392;2023-08-30T00:50:08;9.00;;;3.30;;
61477;SDS011;47345;52.334;10.392;2023-08-30T00:52:39;5.40;;;3.30;;
61477;SDS011;47345;52.334;10.392;2023-08-30T00:55:10;5.20;;;3.20;;
61477;SDS011;47345;52.334;10.392;2023-08-30T00:57:43;5.80;;;3.40;;
61477;SDS011;47345;52.334;10.392;2023-08-30T01:00:15;4.80;;;3.60;;
61477;SDS011;47345;52.334;10.392;2023-08-30T01:02:46;4.90;;;3.80;;
61477;SDS011;47345;52.334;10.392;2023-08-30T01:05:18;6.10;;;4.00;;
61477;SDS011;47345;52.334;10.392;2023-08-30T01:07:48;4.80;;;4.10;;
61477;SDS011;47345;52.334;10.392;2023-08-30T01:10:21;7.60;;;4.20;;
61477;SDS011;47345;52.334;10.392;2023-08-30T01:13:03;7.40;;;4.20;;
61477;SDS011;47345;52.334;10.392;2023-08-30T01:15:38;5.90;;;4.20;;
61477;SDS011;47345;52.334;10.392;2023-08-30T01:18:09;5.90;;;4.30;;
61477;SDS011;47345;52.334;10.392;2023-08-30T01:20:41;7.60;;;4.10;;
61477;SDS011;47345;52.334;10.392;2023-08-30T01:23:16;4.90;;;3.90;;
61477;SDS011;47345;52.334;10.392;2023-08-30T01:25:55;6.80;;;4.30;;
61477;SDS011;47345;52.334;10.392;2023-08-30T01:28:33;8.90;;;4.30;;
61477;SDS011;47345;52.334;10.392;2023-08-30T01:31:07;9.30;;;4.30;;
61477;SDS011;47345;52.334;10.392;2023-08-30T01:33:41;5.20;;;4.10;;
61477;SDS011;47345;52.334;10.392;2023-08-30T01:36:13;4.50;;;3.70;;
61477;SDS011;47345;52.334;10.392;2023-08-30T01:38:45;4.50;;;3.80;;
61477;SDS011;47345;52.334;10.392;2023-08-30T01:41:17;5.00;;;3.80;;
61477;SDS011;47345;52.334;10.392;2023-08-30T01:43:51;6.40;;;4.00;;
61477;SDS011;47345;52.334;10.392;2023-08-30T01:46:23;4.50;;;4.00;;
61477;SDS011;47345;52.334;10.392;2023-08-30T01:48:55;5.30;;;4.30;;
61477;SDS011;47345;52.334;10.392;2023-08-30T01:51:27;9.00;;;4.20;;
61477;SDS011;47345;52.334;10.392;2023-08-30T01:53:58;4.60;;;4.20;;
61477;SDS011;47345;52.334;10.392;2023-08-30T01:56:31;5.40;;;4.40;;
61477;SDS011;47345;52.334;10.392;2023-08-30T01:59:02;5.60;;;4.50;;
61477;SDS011;47345;52.334;10.392;2023-08-30T02:01:33;6.90;;;4.50;;
61477;SDS011;47345;52.334;10.392;2023-08-30T02:04:04;5.20;;;4.70;;
61477;SDS011;47345;52.334;10.392;2023-08-30T02:06:35;5.30;;;4.60;;
61477;SDS011;47345;52.334;10.392;2023-08-30T02:09:14;8.30;;;4.60;;
61477;SDS011;47345;52.334;10.392;2023-08-30T02:11:50;6.20;;;4.90;;
61477;SDS011;47345;52.334;10.392;2023-08-30T02:14:22;6.40;;;5.10;;
61477;SDS011;47345;52.334;10.392;2023-08-30T02:16:55;6.10;;;4.60;;
61477;SDS011;47345;52.334;10.392;2023-08-30T02:19:27;6.20;;;4.70;;
61477;SDS011;47345;52.334;10.392;2023-08-30T02:21:58;9.40;;;4.70;;
61477;SDS011;47345;52.334;10.392;2023-08-30T02:24:29;5.60;;;4.60;;
61477;SDS011;47345;52.334;10.392;2023-08-30T02:27:00;5.90;;;4.70;;
61477;SDS011;47345;52.334;10.392;2023-08-30T02:29:31;6.00;;;4.80;;
61477;SDS011;47345;52.334;10.392;2023-08-30T02:32:03;7.80;;;4.70;;
61477;SDS011;47345;52.334;10.392;2023-08-30T02:34:34;4.50;;;4.10;;
61477;SDS011;47345;52.334;10.392;2023-08-30T02:37:05;5.10;;;4.20;;
61477;SDS011;47345;52.334;10.392;2023-08-30T02:39:35;4.80;;;4.10;;
61477;SDS011;47345;52.334;10.392;2023-08-30T02:42:06;5.10;;;4.40;;
61477;SDS011;47345;52.334;10.392;2023-08-30T02:44:37;9.20;;;4.90;;
61477;SDS011;47345;52.334;10.392;2023-08-30T02:47:08;5.40;;;4.70;;
61477;SDS011;47345;52.334;10.392;2023-08-30T02:49:39;5.30;;;4.50;;
61477;SDS011;47345;52.334;10.392;2023-08-30T02:52:10;5.70;;;4.90;;
61477;SDS011;47345;52.334;10.392;2023-08-30T02:54:41;6.40;;;5.10;;
61477;SDS011;47345;52.334;10.392;2023-08-30T02:57:12;7.70;;;5.20;;
61477;SDS011;47345;52.334;10.392;2023-08-30T02:59:42;5.60;;;4.90;;
61477;SDS011;47345;52.334;10.392;2023-08-30T03:02:13;5.30;;;4.70;;
61477;SDS011;47345;52.334;10.392;2023-08-30T03:04:44;6.20;;;4.80;;
61477;SDS011;47345;52.334;10.392;2023-08-30T03:07:15;6.80;;;4.80;;
61477;SDS011;47345;52.334;10.392;2023-08-30T03:09:46;6.60;;;5.30;;
61477;SDS011;47345;52.334;10.392;2023-08-30T03:12:20;5.40;;;4.90;;
61477;SDS011;47345;52.334;10.392;2023-08-30T03:14:51;6.90;;;5.50;;
61477;SDS011;47345;52.334;10.392;2023-08-30T03:17:22;5.80;;;4.90;;
61477;SDS011;47345;52.334;10.392;2023-08-30T03:19:53;7.80;;;4.90;;
61477;SDS011;47345;52.334;10.392;2023-08-30T03:22:24;5.90;;;4.70;;
61477;SDS011;47345;52.334;10.392;2023-08-30T03:24:55;6.00;;;4.70;;
61477;SDS011;47345;52.334;10.392;2023-08-30T03:27:26;6.00;;;4.90;;
61477;SDS011;47345;52.334;10.392;2023-08-30T03:29:57;6.00;;;5.10;;
61477;SDS011;47345;52.334;10.392;2023-08-30T03:32:29;5.40;;;4.90;;
61477;SDS011;47345;52.334;10.392;2023-08-30T03:35:00;10.70;;;5.50;;
61477;SDS011;47345;52.334;10.392;2023-08-30T03:37:31;10.90;;;5.40;;
61477;SDS011;47345;52.334;10.392;2023-08-30T03:40:02;6.40;;;5.10;;
61477;SDS011;47345;52.334;10.392;2023-08-30T03:42:35;5.60;;;4.90;;
61477;SDS011;47345;52.334;10.392;2023-08-30T03:45:08;11.00;;;5.40;;
61477;SDS011;47345;52.334;10.392;2023-08-30T03:47:39;6.90;;;5.10;;
61477;SDS011;47345;52.334;10.392;2023-08-30T03:50:10;8.70;;;5.30;;
61477;SDS011;47345;52.334;10.392;2023-08-30T03:52:41;10.70;;;5.50;;
61477;SDS011;47345;52.334;10.392;2023-08-30T03:55:12;5.90;;;5.00;;
61477;SDS011;47345;52.334;10.392;2023-08-30T03:57:42;6.30;;;5.40;;
61477;SDS011;47345;52.334;10.392;2023-08-30T04:00:13;8.00;;;4.80;;
61477;SDS011;47345;52.334;10.392;2023-08-30T04:02:45;5.60;;;4.50;;
61477;SDS011;47345;52.334;10.392;2023-08-30T04:05:16;5.90;;;4.90;;
61477;SDS011;47345;52.334;10.392;2023-08-30T04:07:47;6.90;;;5.30;;
61477;SDS011;47345;52.334;10.392;2023-08-30T04:10:18;9.20;;;4.40;;
61477;SDS011;47345;52.334;10.392;2023-08-30T04:12:49;7.30;;;4.70;;
61477;SDS011;47345;52.334;10.392;2023-08-30T04:15:20;5.50;;;4.50;;
61477;SDS011;47345;52.334;10.392;2023-08-30T04:17:50;6.20;;;5.00;;
61477;SDS011;47345;52.334;10.392;2023-08-30T04:20:21;6.70;;;4.60;;
61477;SDS011;47345;52.334;10.392;2023-08-30T04:22:52;6.80;;;4.00;;
61477;SDS011;47345;52.334;10.392;2023-08-30T04:25:24;5.50;;;4.20;;
61477;SDS011;47345;52.334;10.392;2023-08-30T04:27:55;5.30;;;4.50;;
61477;SDS011;47345;52.334;10.392;2023-08-30T04:30:26;5.80;;;4.60;;
61477;SDS011;47345;52.334;10.392;2023-08-30T04:32:57;8.80;;;4.70;;
61477;SDS011;47345;52.334;10.392;2023-08-30T04:35:30;9.80;;;4.90;;
61477;SDS011;47345;52.334;10.392;2023-08-30T04:38:01;6.20;;;4.50;;
61477;SDS011;47345;52.334;10.392;2023-08-30T04:40:33;6.80;;;4.60;;
61477;SDS011;47345;52.334;10.392;2023-08-30T04:43:04;8.30;;;5.00;;
61477;SDS011;47345;52.334;10.392;2023-08-30T04:45:35;9.80;;;4.50;;
61477;SDS011;47345;52.334;10.392;2023-08-30T04:48:06;7.30;;;4.80;;
61477;SDS011;47345;52.334;10.392;2023-08-30T04:50:37;5.70;;;4.90;;
61477;SDS011;47345;52.334;10.392;2023-08-30T04:53:07;7.40;;;4.90;;
61477;SDS011;47345;52.334;10.392;2023-08-30T04:55:38;5.10;;;4.50;;
61477;SDS011;47345;52.334;10.392;2023-08-30T04:58:09;8.20;;;4.60;;
61477;SDS011;47345;52.334;10.392;2023-08-30T05:00:40;7.30;;;4.90;;
61477;SDS011;47345;52.334;10.392;2023-08-30T05:03:11;6.00;;;5.20;;
61477;SDS011;47345;52.334;10.392;2023-08-30T05:05:45;9.70;;;4.70;;
61477;SDS011;47345;52.334;10.392;2023-08-30T05:08:16;7.30;;;4.30;;
61477;SDS011;47345;52.334;10.392;2023-08-30T05:10:47;7.10;;;4.70;;
61477;SDS011;47345;52.334;10.392;2023-08-30T05:13:18;6.30;;;4.60;;
61477;SDS011;47345;52.334;10.392;2023-08-30T05:15:50;5.50;;;4.70;;
61477;SDS011;47345;52.334;10.392;2023-08-30T05:18:20;6.90;;;4.30;;
61477;SDS011;47345;52.334;10.392;2023-08-30T05:20:51;8.20;;;4.60;;
61477;SDS011;47345;52.334;10.392;2023-08-30T05:23:22;7.60;;;5.00;;
61477;SDS011;47345;52.334;10.392;2023-08-30T05:25:53;5.70;;;4.50;;
61477;SDS011;47345;52.334;10.392;2023-08-30T05:28:24;5.80;;;4.40;;
61477;SDS011;47345;52.334;10.392;2023-08-30T05:30:55;4.30;;;3.90;;
61477;SDS011;47345;52.334;10.392;2023-08-30T05:33:26;4.50;;;4.10;;
61477;SDS011;47345;52.334;10.392;2023-08-30T05:35:57;4.80;;;4.00;;
61477;SDS011;47345;52.334;10.392;2023-08-30T05:38:28;4.90;;;4.40;;
61477;SDS011;47345;52.334;10.392;2023-08-30T05:40:58;5.20;;;4.50;;
61477;SDS011;47345;52.334;10.392;2023-08-30T05:43:29;4.40;;;4.00;;
61477;SDS011;47345;52.334;10.392;2023-08-30T05:46:00;4.60;;;4.00;;
61477;SDS011;47345;52.334;10.392;2023-08-30T05:48:32;4.40;;;4.00;;
61477;SDS011;47345;52.334;10.392;2023-08-30T05:51:03;5.90;;;4.40;;
61477;SDS011;47345;52.334;10.392;2023-08-30T05:53:34;8.20;;;3.90;;
61477;SDS011;47345;52.334;10.392;2023-08-30T05:56:05;5.00;;;4.00;;
61477;SDS011;47345;52.334;10.392;2023-08-30T05:58:36;6.70;;;4.10;;
61477;SDS011;47345;52.334;10.392;2023-08-30T06:01:07;9.00;;;4.20;;
61477;SDS011;47345;52.334;10.392;2023-08-30T06:03:38;5.40;;;4.00;;
61477;SDS011;47345;52.334;10.392;2023-08-30T06:06:09;5.50;;;4.10;;
61477;SDS011;47345;52.334;10.392;2023-08-30T06:08:40;6.50;;;3.90;;
61477;SDS011;47345;52.334;10.392;2023-08-30T06:11:11;5.80;;;3.60;;
61477;SDS011;47345;52.334;10.392;2023-08-30T06:13:43;6.10;;;4.10;;
61477;SDS011;47345;52.334;10.392;2023-08-30T06:16:14;4.50;;;3.90;;
61477;SDS011;47345;52.334;10.392;2023-08-30T06:18:45;4.30;;;3.90;;
61477;SDS011;47345;52.334;10.392;2023-08-30T06:21:15;4.40;;;3.80;;
61477;SDS011;47345;52.334;10.392;2023-08-30T06:23:46;5.40;;;3.80;;
61477;SDS011;47345;52.334;10.392;2023-08-30T06:26:18;5.30;;;3.70;;
61477;SDS011;47345;52.334;10.392;2023-08-30T06:28:50;4.30;;;3.70;;
61477;SDS011;47345;52.334;10.392;2023-08-30T06:31:23;4.50;;;3.70;;
61477;SDS011;47345;52.334;10.392;2023-08-30T06:33:57;6.30;;;4.00;;
61477;SDS011;47345;52.334;10.392;2023-08-30T06:36:28;5.30;;;3.80;;
61477;SDS011;47345;52.334;10.392;2023-08-30T06:38:59;5.40;;;3.90;;
61477;SDS011;47345;52.334;10.392;2023-08-30T06:41:30;4.90;;;3.80;;
61477;SDS011;47345;52.334;10.392;2023-08-30T06:44:01;7.50;;;4.40;;
61477;SDS011;47345;52.334;10.392;2023-08-30T06:46:32;6.30;;;3.60;;
61477;SDS011;47345;52.334;10.392;2023-08-30T06:49:05;6.20;;;3.70;;
61477;SDS011;47345;52.334;10.392;2023-08-30T06:51:37;6.90;;;3.50;;
61477;SDS011;47345;52.334;10.392;2023-08-30T06:54:09;8.00;;;4.00;;
61477;SDS011;47345;52.334;10.392;2023-08-30T06:56:39;8.10;;;4.30;;
61477;SDS011;47345;52.334;10.392;2023-08-30T06:59:25;4.90;;;4.20;;
61477;SDS011;47345;52.334;10.392;2023-08-30T07:01:56;8.90;;;4.10;;
61477;SDS011;47345;52.334;10.392;2023-08-30T07:04:27;5.00;;;3.90;;
61477;SDS011;47345;52.334;10.392;2023-08-30T07:06:58;8.60;;;3.70;;
61477;SDS011;47345;52.334;10.392;2023-08-30T07:09:30;4.60;;;3.50;;
61477;SDS011;47345;52.334;10.392;2023-08-30T07:12:01;8.10;;;3.70;;
61477;SDS011;47345;52.334;10.392;2023-08-30T07:14:32;5.60;;;3.40;;
61477;SDS011;47345;52.334;10.392;2023-08-30T07:17:03;5.50;;;3.70;;
61477;SDS011;47345;52.334;10.392;2023-08-30T07:19:35;8.00;;;3.50;;
61477;SDS011;47345;52.334;10.392;2023-08-30T07:22:06;5.30;;;3.60;;
61477;SDS011;47345;52.334;10.392;2023-08-30T07:24:37;5.20;;;3.70;;
61477;SDS011;47345;52.334;10.392;2023-08-30T07:27:08;3.90;;;3.40;;
61477;SDS011;47345;52.334;10.392;2023-08-30T07:29:39;4.50;;;3.50;;
61477;SDS011;47345;52.334;10.392;2023-08-30T07:32:11;4.60;;;3.50;;
61477;SDS011;47345;52.334;10.392;2023-08-30T07:34:42;4.20;;;3.20;;
61477;SDS011;47345;52.334;10.392;2023-08-30T07:37:19;5.10;;;3.30;;
61477;SDS011;47345;52.334;10.392;2023-08-30T07:39:52;5.00;;;3.30;;
61477;SDS011;47345;52.334;10.392;2023-08-30T07:42:23;3.70;;;3.20;;
61477;SDS011;47345;52.334;10.392;2023-08-30T07:44:54;4.90;;;3.60;;
61477;SDS011;47345;52.334;10.392;2023-08-30T07:47:25;3.90;;;3.20;;
61477;SDS011;47345;52.334;10.392;2023-08-30T07:49:56;4.10;;;3.00;;
61477;SDS011;47345;52.334;10.392;2023-08-30T07:52:26;4.90;;;3.30;;
61477;SDS011;47345;52.334;10.392;2023-08-30T07:55:12;6.70;;;3.40;;
61477;SDS011;47345;52.334;10.392;2023-08-30T07:57:43;4.50;;;2.90;;
61477;SDS011;47345;52.334;10.392;2023-08-30T08:00:14;7.00;;;3.80;;
61477;SDS011;47345;52.334;10.392;2023-08-30T08:02:46;6.30;;;2.80;;
61477;SDS011;47345;52.334;10.392;2023-08-30T08:05:17;3.40;;;3.00;;
61477;SDS011;47345;52.334;10.392;2023-08-30T08:07:49;4.20;;;3.00;;
61477;SDS011;47345;52.334;10.392;2023-08-30T08:10:21;4.00;;;3.00;;
61477;SDS011;47345;52.334;10.392;2023-08-30T08:12:52;4.20;;;2.90;;
61477;SDS011;47345;52.334;10.392;2023-08-30T08:15:25;3.80;;;3.10;;
61477;SDS011;47345;52.334;10.392;2023-08-30T08:17:58;3.70;;;3.30;;
61477;SDS011;47345;52.334;10.392;2023-08-30T08:20:29;4.60;;;2.80;;
61477;SDS011;47345;52.334;10.392;2023-08-30T08:23:01;4.60;;;3.00;;
61477;SDS011;47345;52.334;10.392;2023-08-30T08:25:32;2.90;;;2.70;;
61477;SDS011;47345;52.334;10.392;2023-08-30T08:28:03;4.20;;;3.00;;
61477;SDS011;47345;52.334;10.392;2023-08-30T08:30:35;3.80;;;3.50;;
61477;SDS011;47345;52.334;10.392;2023-08-30T08:33:06;7.10;;;3.00;;
61477;SDS011;47345;52.334;10.392;2023-08-30T08:35:37;10.30;;;4.30;;
61477;SDS011;47345;52.334;10.392;2023-08-30T08:38:08;3.60;;;3.00;;
61477;SDS011;47345;52.334;10.392;2023-08-30T08:40:39;5.20;;;3.30;;
61477;SDS011;47345;52.334;10.392;2023-08-30T08:43:11;7.30;;;3.70;;
61477;SDS011;47345;52.334;10.392;2023-08-30T08:45:41;5.90;;;3.40;;
61477;SDS011;47345;52.334;10.392;2023-08-30T08:48:14;9.80;;;4.40;;
61477;SDS011;47345;52.334;10.392;2023-08-30T08:50:45;4.40;;;3.90;;
61477;SDS011;47345;52.334;10.392;2023-08-30T08:53:17;8.00;;;4.00;;
61477;SDS011;47345;52.334;10.392;2023-08-30T08:55:49;4.60;;;3.70;;
61477;SDS011;47345;52.334;10.392;2023-08-30T08:58:21;6.00;;;3.90;;
61477;SDS011;47345;52.334;10.392;2023-08-30T09:00:52;5.30;;;4.00;;
61477;SDS011;47345;52.334;10.392;2023-08-30T09:03:24;4.60;;;3.20;;
61477;SDS011;47345;52.334;10.392;2023-08-30T09:05:55;6.00;;;3.30;;
61477;SDS011;47345;52.334;10.392;2023-08-30T09:08:27;4.50;;;2.80;;
61477;SDS011;47345;52.334;10.392;2023-08-30T09:11:00;3.80;;;2.80;;
61477;SDS011;47345;52.334;10.392;2023-08-30T09:13:31;4.20;;;2.90;;
61477;SDS011;47345;52.334;10.392;2023-08-30T09:16:02;8.10;;;2.90;;
61477;SDS011;47345;52.334;10.392;2023-08-30T09:18:40;6.50;;;2.60;;
61477;SDS011;47345;52.334;10.392;2023-08-30T09:21:23;2.40;;;2.10;;
61477;SDS011;47345;52.334;10.392;2023-08-30T09:24:00;2.30;;;2.00;;
61477;SDS011;47345;52.334;10.392;2023-08-30T09:26:33;2.60;;;2.10;;
61477;SDS011;47345;52.334;10.392;2023-08-30T09:29:06;2.80;;;2.30;;
61477;SDS011;47345;52.334;10.392;2023-08-30T09:31:38;3.70;;;2.20;;
61477;SDS011;47345;52.334;10.392;2023-08-30T09:34:10;3.90;;;2.20;;
61477;SDS011;47345;52.334;10.392;2023-08-30T09:36:41;3.00;;;2.30;;
61477;SDS011;47345;52.334;10.392;2023-08-30T09:39:14;2.30;;;2.10;;
61477;SDS011;47345;52.334;10.392;2023-08-30T09:41:46;4.60;;;2.60;;
61477;SDS011;47345;52.334;10.392;2023-08-30T09:44:18;4.00;;;2.50;;
61477;SDS011;47345;52.334;10.392;2023-08-30T09:46:51;4.70;;;2.80;;
61477;SDS011;47345;52.334;10.392;2023-08-30T09:49:23;3.50;;;3.00;;
61477;SDS011;47345;52.334;10.392;2023-08-30T09:51:54;4.60;;;3.70;;
61477;SDS011;47345;52.334;10.392;2023-08-30T09:54:28;4.70;;;3.40;;
61477;SDS011;47345;52.334;10.392;2023-08-30T09:57:07;3.70;;;3.20;;
61477;SDS011;47345;52.334;10.392;2023-08-30T09:59:38;8.60;;;3.70;;
61477;SDS011;47345;52.334;10.392;2023-08-30T10:02:09;5.80;;;3.60;;
61477;SDS011;47345;52.334;10.392;2023-08-30T10:04:40;3.90;;;3.30;;
61477;SDS011;47345;52.334;10.392;2023-08-30T10:07:13;3.30;;;2.90;;
61477;SDS011;47345;52.334;10.392;2023-08-30T10:09:45;5.80;;;3.00;;
61477;SDS011;47345;52.334;10.392;2023-08-30T10:12:37;5.90;;;3.90;;
61477;SDS011;47345;52.334;10.392;2023-08-30T10:15:20;5.20;;;3.70;;
61477;SDS011;47345;52.334;10.392;2023-08-30T10:17:53;9.10;;;3.80;;
61477;SDS011;47345;52.334;10.392;2023-08-30T10:20:27;6.10;;;3.70;;
61477;SDS011;47345;52.334;10.392;2023-08-30T10:22:59;6.50;;;4.90;;
61477;SDS011;47345;52.334;10.392;2023-08-30T10:25:31;6.30;;;4.00;;
61477;SDS011;47345;52.334;10.392;2023-08-30T10:28:03;8.00;;;4.10;;
61477;SDS011;47345;52.334;10.392;2023-08-30T10:30:35;4.10;;;3.60;;
61477;SDS011;47345;52.334;10.392;2023-08-30T10:33:12;4.00;;;3.20;;
61477;SDS011;47345;52.334;10.392;2023-08-30T10:38:25;4.50;;;3.80;;
61477;SDS011;47345;52.334;10.392;2023-08-30T10:40:58;4.90;;;3.70;;
61477;SDS011;47345;52.334;10.392;2023-08-30T10:43:37;4.00;;;3.60;;
61477;SDS011;47345;52.334;10.392;2023-08-30T10:46:08;5.60;;;3.30;;
61477;SDS011;47345;52.334;10.392;2023-08-30T10:48:40;3.80;;;3.40;;
61477;SDS011;47345;52.334;10.392;2023-08-30T10:51:19;3.90;;;3.10;;
61477;SDS011;47345;52.334;10.392;2023-08-30T10:53:57;5.80;;;3.40;;
61477;SDS011;47345;52.334;10.392;2023-08-30T10:56:28;4.10;;;3.00;;
61477;SDS011;47345;52.334;10.392;2023-08-30T10:59:03;5.70;;;3.00;;
61477;SDS011;47345;52.334;10.392;2023-08-30T11:01:44;3.90;;;3.30;;
61477;SDS011;47345;52.334;10.392;2023-08-30T11:04:16;8.80;;;3.30;;
61477;SDS011;47345;52.334;10.392;2023-08-30T11:06:50;4.10;;;2.90;;
61477;SDS011;47345;52.334;10.392;2023-08-30T11:09:23;5.40;;;3.40;;
61477;SDS011;47345;52.334;10.392;2023-08-30T11:11:54;8.80;;;3.40;;
61477;SDS011;47345;52.334;10.392;2023-08-30T11:14:25;10.20;;;3.10;;
61477;SDS011;47345;52.334;10.392;2023-08-30T11:16:56;3.80;;;3.00;;
61477;SDS011;47345;52.334;10.392;2023-08-30T11:19:28;3.80;;;2.90;;
61477;SDS011;47345;52.334;10.392;2023-08-30T11:22:00;4.40;;;3.00;;
61477;SDS011;47345;52.334;10.392;2023-08-30T11:24:31;7.30;;;3.80;;
61477;SDS011;47345;52.334;10.392;2023-08-30T11:27:04;6.00;;;4.30;;
61477;SDS011;47345;52.334;10.392;2023-08-30T11:29:35;9.50;;;4.00;;
61477;SDS011;47345;52.334;10.392;2023-08-30T11:32:08;5.50;;;4.60;;
61477;SDS011;47345;52.334;10.392;2023-08-30T11:34:39;7.00;;;5.30;;
61477;SDS011;47345;52.334;10.392;2023-08-30T11:37:09;8.00;;;5.90;;
61477;SDS011;47345;52.334;10.392;2023-08-30T11:39:41;8.60;;;4.90;;
61477;SDS011;47345;52.334;10.392;2023-08-30T11:42:12;8.00;;;4.80;;
61477;SDS011;47345;52.334;10.392;2023-08-30T11:44:46;6.10;;;4.90;;
61477;SDS011;47345;52.334;10.392;2023-08-30T11:47:19;8.20;;;5.00;;
61477;SDS011;47345;52.334;10.392;2023-08-30T11:49:51;8.80;;;4.10;;
61477;SDS011;47345;52.334;10.392;2023-08-30T11:52:24;4.80;;;4.10;;
61477;SDS011;47345;52.334;10.392;2023-08-30T11:54:55;5.70;;;4.20;;
61477;SDS011;47345;52.334;10.392;2023-08-30T11:57:26;7.70;;;4.30;;
61477;SDS011;47345;52.334;10.392;2023-08-30T11:59:57;5.20;;;3.80;;
61477;SDS011;47345;52.334;10.392;2023-08-30T12:02:37;5.90;;;3.90;;
61477;SDS011;47345;52.334;10.392;2023-08-30T12:05:11;5.60;;;4.10;;
61477;SDS011;47345;52.334;10.392;2023-08-30T12:07:45;6.00;;;4.30;;
61477;SDS011;47345;52.334;10.392;2023-08-30T12:10:17;7.60;;;4.60;;
61477;SDS011;47345;52.334;10.392;2023-08-30T12:12:49;4.50;;;4.10;;
61477;SDS011;47345;52.334;10.392;2023-08-30T12:15:22;6.00;;;4.40;;
61477;SDS011;47345;52.334;10.392;2023-08-30T12:17:56;5.40;;;3.90;;
61477;SDS011;47345;52.334;10.392;2023-08-30T12:20:35;6.90;;;4.30;;
61477;SDS011;47345;52.334;10.392;2023-08-30T12:23:06;4.00;;;3.60;;
61477;SDS011;47345;52.334;10.392;2023-08-30T12:25:57;5.60;;;4.00;;
61477;SDS011;47345;52.334;10.392;2023-08-30T12:28:29;7.00;;;5.10;;
61477;SDS011;47345;52.334;10.392;2023-08-30T12:31:01;4.80;;;4.10;;
61477;SDS011;47345;52.334;10.392;2023-08-30T12:33:32;6.30;;;4.50;;
61477;SDS011;47345;52.334;10.392;2023-08-30T12:36:04;7.00;;;4.40;;
61477;SDS011;47345;52.334;10.392;2023-08-30T12:38:35;5.80;;;4.70;;
61477;SDS011;47345;52.334;10.392;2023-08-30T12:41:06;6.90;;;5.00;;
61477;SDS011;47345;52.334;10.392;2023-08-30T12:43:37;5.60;;;4.50;;
61477;SDS011;47345;52.334;10.392;2023-08-30T12:46:09;5.10;;;4.30;;
61477;SDS011;47345;52.334;10.392;2023-08-30T12:48:40;9.30;;;4.80;;
61477;SDS011;47345;52.334;10.392;2023-08-30T12:51:11;5.50;;;4.30;;
61477;SDS011;47345;52.334;10.392;2023-08-30T12:53:42;5.10;;;4.30;;
61477;SDS011;47345;52.334;10.392;2023-08-30T12:56:13;6.40;;;4.80;;
61477;SDS011;47345;52.334;10.392;2023-08-30T12:58:44;12.50;;;9.00;;
61477;SDS011;47345;52.334;10.392;2023-08-30T13:01:15;5.50;;;4.30;;
61477;SDS011;47345;52.334;10.392;2023-08-30T13:03:46;6.30;;;4.50;;
61477;SDS011;47345;52.334;10.392;2023-08-30T13:06:17;5.80;;;4.00;;
61477;SDS011;47345;52.334;10.392;2023-08-30T13:08:48;4.40;;;3.70;;
61477;SDS011;47345;52.334;10.392;2023-08-30T13:11:18;8.60;;;4.20;;
61477;SDS011;47345;52.334;10.392;2023-08-30T13:13:49;4.40;;;3.60;;
61477;SDS011;47345;52.334;10.392;2023-08-30T13:16:20;6.00;;;4.10;;
61477;SDS011;47345;52.334;10.392;2023-08-30T13:18:51;7.60;;;4.00;;
61477;SDS011;47345;52.334;10.392;2023-08-30T13:21:21;4.90;;;3.80;;
61477;SDS011;47345;52.334;10.392;2023-08-30T13:24:07;7.10;;;3.60;;
61477;SDS011;47345;52.334;10.392;2023-08-30T13:26:38;3.80;;;3.40;;
61477;SDS011;47345;52.334;10.392;2023-08-30T13:29:10;8.20;;;4.00;;
61477;SDS011;47345;52.334;10.392;2023-08-30T13:31:40;7.00;;;4.10;;
61477;SDS011;47345;52.334;10.392;2023-08-30T13:34:12;5.90;;;3.90;;
61477;SDS011;47345;52.334;10.392;2023-08-30T13:36:43;5.90;;;4.70;;
61477;SDS011;47345;52.334;10.392;2023-08-30T13:39:14;4.70;;;3.90;;
61477;SDS011;47345;52.334;10.392;2023-08-30T13:41:47;6.80;;;4.30;;
61477;SDS011;47345;52.334;10.392;2023-08-30T13:44:18;6.00;;;4.90;;
61477;SDS011;47345;52.334;10.392;2023-08-30T13:46:49;5.60;;;4.30;;
61477;SDS011;47345;52.334;10.392;2023-08-30T13:49:20;5.30;;;4.00;;
61477;SDS011;47345;52.334;10.392;2023-08-30T13:51:52;6.60;;;4.00;;
61477;SDS011;47345;52.334;10.392;2023-08-30T13:54:23;5.70;;;4.40;;
61477;SDS011;47345;52.334;10.392;2023-08-30T13:56:57;10.40;;;4.60;;
61477;SDS011;47345;52.334;10.392;2023-08-30T13:59:28;5.80;;;4.80;;
61477;SDS011;47345;52.334;10.392;2023-08-30T14:01:59;7.00;;;4.30;;
61477;SDS011;47345;52.334;10.392;2023-08-30T14:04:32;6.00;;;3.90;;
61477;SDS011;47345;52.334;10.392;2023-08-30T14:07:05;5.00;;;3.90;;
61477;SDS011;47345;52.334;10.392;2023-08-30T14:09:37;5.80;;;4.20;;
61477;SDS011;47345;52.334;10.392;2023-08-30T14:12:08;6.50;;;4.70;;
61477;SDS011;47345;52.334;10.392;2023-08-30T14:14:39;7.00;;;3.80;;
61477;SDS011;47345;52.334;10.392;2023-08-30T14:17:10;4.80;;;3.70;;
61477;SDS011;47345;52.334;10.392;2023-08-30T14:19:41;4.30;;;3.50;;
61477;SDS011;47345;52.334;10.392;2023-08-30T14:22:12;7.60;;;3.80;;
61477;SDS011;47345;52.334;10.392;2023-08-30T14:24:43;4.70;;;3.60;;
61477;SDS011;47345;52.334;10.392;2023-08-30T14:27:34;3.90;;;3.40;;
61477;SDS011;47345;52.334;10.392;2023-08-30T14:30:06;5.60;;;3.00;;
61477;SDS011;47345;52.334;10.392;2023-08-30T14:32:38;4.40;;;2.90;;
61477;SDS011;47345;52.334;10.392;2023-08-30T14:35:09;4.90;;;3.60;;
61477;SDS011;47345;52.334;10.392;2023-08-30T14:37:40;4.30;;;3.40;;
61477;SDS011;47345;52.334;10.392;2023-08-30T14:40:11;6.00;;;3.70;;
61477;SDS011;47345;52.334;10.392;2023-08-30T14:42:42;5.90;;;4.00;;
61477;SDS011;47345;52.334;10.392;2023-08-30T14:45:13;5.40;;;3.30;;
61477;SDS011;47345;52.334;10.392;2023-08-30T14:47:45;4.00;;;3.60;;
61477;SDS011;47345;52.334;10.392;2023-08-30T14:50:16;4.30;;;3.40;;
61477;SDS011;47345;52.334;10.392;2023-08-30T14:52:47;4.00;;;3.50;;
61477;SDS011;47345;52.334;10.392;2023-08-30T14:55:18;7.00;;;3.80;;
61477;SDS011;47345;52.334;10.392;2023-08-30T14:57:49;6.20;;;3.40;;
61477;SDS011;47345;52.334;10.392;2023-08-30T15:00:20;5.90;;;3.30;;
61477;SDS011;47345;52.334;10.392;2023-08-30T15:02:51;6.10;;;3.90;;
61477;SDS011;47345;52.334;10.392;2023-08-30T15:05:21;5.10;;;3.50;;